sensor_id;sensor_type;location;lat;lon;timestamp;temperature;humidity
5134;DHT22;2585;48.696;10.066;2023-09-19T00:00:21;14.10;93.00
5134;DHT22;2585;48.696;10.066;2023-09-19T00:02:55;14.10;93.00
5134;DHT22;2585;48.696;10.066;2023-09-19T00:05:26;14.10;93.00
5134;DHT22;2585;48.696;10.066;2023-09-19T00:07:56;14.10;93.00
5134;DHT22;2585;48.696;10.066;2023-09-19T00:10:26;14.10;93.00
5134;DHT22;2585;48.696;10.066;2023-09-19T00:12:54;14.10;93.00
5134;DHT22;2585;48.696;10.066;2023-09-19T00:15:26;14.10;93.00
5134;DHT22;2585;48.696;10.066;2023-09-19T00:17:56;14.10;93.00
5134;DHT22;2585;48.696;10.066;2023-09-19T00:20:23;14.20;93.10
5134;DHT22;2585;48.696;10.066;2023-09-19T00:22:50;14.10;93.00
5134;DHT22;2585;48.696;10.066;2023-09-19T00:25:20;14.20;93.10
5134;DHT22;2585;48.696;10.066;2023-09-19T00:27:47;14.20;93.10
5134;DHT22;2585;48.696;10.066;2023-09-19T00:30:16;14.20;93.10
5134;DHT22;2585;48.696;10.066;2023-09-19T00:32:48;14.20;93.10
5134;DHT22;2585;48.696;10.066;2023-09-19T00:35:18;14.20;93.10
5134;DHT22;2585;48.696;10.066;2023-09-19T00:37:45;14.20;93.10
5134;DHT22;2585;48.696;10.066;2023-09-19T00:40:12;14.20;93.10
5134;DHT22;2585;48.696;10.066;2023-09-19T00:42:39;14.30;93.10
5134;DHT22;2585;48.696;10.066;2023-09-19T00:45:08;14.20;93.10
5134;DHT22;2585;48.696;10.066;2023-09-19T00:47:48;14.30;93.10
5134;DHT22;2585;48.696;10.066;2023-09-19T00:50:17;14.20;93.10
5134;DHT22;2585;48.696;10.066;2023-09-19T00:52:49;14.20;93.10
5134;DHT22;2585;48.696;10.066;2023-09-19T00:55:17;14.20;93.10
5134;DHT22;2585;48.696;10.066;2023-09-19T00:57:47;14.20;93.10
5134;DHT22;2585;48.696;10.066;2023-09-19T01:00:17;14.20;93.10
5134;DHT22;2585;48.696;10.066;2023-09-19T01:02:46;14.20;93.10
5134;DHT22;2585;48.696;10.066;2023-09-19T01:05:14;14.20;93.10
5134;DHT22;2585;48.696;10.066;2023-09-19T01:07:41;14.20;93.10
5134;DHT22;2585;48.696;10.066;2023-09-19T01:10:13;14.20;93.10
5134;DHT22;2585;48.696;10.066;2023-09-19T01:13:04;14.20;93.10
5134;DHT22;2585;48.696;10.066;2023-09-19T01:26:42;14.30;93.10
5134;DHT22;2585;48.696;10.066;2023-09-19T01:29:17;14.20;93.10
5134;DHT22;2585;48.696;10.066;2023-09-19T01:31:51;14.20;93.10
5134;DHT22;2585;48.696;10.066;2023-09-19T01:34:21;14.10;93.10
5134;DHT22;2585;48.696;10.066;2023-09-19T01:36:48;14.10;93.10
5134;DHT22;2585;48.696;10.066;2023-09-19T01:39:15;14.10;93.00
5134;DHT22;2585;48.696;10.066;2023-09-19T01:42:04;14.10;93.00
5134;DHT22;2585;48.696;10.066;2023-09-19T01:44:59;14.00;93.00
5134;DHT22;2585;48.696;10.066;2023-09-19T01:47:34;13.90;93.00
5134;DHT22;2585;48.696;10.066;2023-09-19T01:52:43;14.00;93.00
5134;DHT22;2585;48.696;10.066;2023-09-19T01:55:13;14.00;93.00
5134;DHT22;2585;48.696;10.066;2023-09-19T01:58:01;14.10;93.00
5134;DHT22;2585;48.696;10.066;2023-09-19T02:00:29;14.20;93.10
5134;DHT22;2585;48.696;10.066;2023-09-19T02:02:59;14.20;93.10
5134;DHT22;2585;48.696;10.066;2023-09-19T02:05:26;14.30;93.10
5134;DHT22;2585;48.696;10.066;2023-09-19T02:07:56;14.30;93.10
5134;DHT22;2585;48.696;10.066;2023-09-19T02:10:25;14.30;93.10
5134;DHT22;2585;48.696;10.066;2023-09-19T02:12:52;14.30;93.10
5134;DHT22;2585;48.696;10.066;2023-09-19T02:15:19;14.30;93.10
5134;DHT22;2585;48.696;10.066;2023-09-19T02:17:46;14.40;93.10
5134;DHT22;2585;48.696;10.066;2023-09-19T02:20:13;14.30;93.00
5134;DHT22;2585;48.696;10.066;2023-09-19T02:22:43;14.30;93.00
5134;DHT22;2585;48.696;10.066;2023-09-19T02:25:11;14.20;93.00
5134;DHT22;2585;48.696;10.066;2023-09-19T02:27:38;14.20;93.00
5134;DHT22;2585;48.696;10.066;2023-09-19T02:30:06;14.30;93.00
5134;DHT22;2585;48.696;10.066;2023-09-19T02:32:33;14.20;93.00
5134;DHT22;2585;48.696;10.066;2023-09-19T02:35:03;14.20;93.00
5134;DHT22;2585;48.696;10.066;2023-09-19T02:37:31;14.20;93.00
5134;DHT22;2585;48.696;10.066;2023-09-19T02:39:59;14.20;93.00
5134;DHT22;2585;48.696;10.066;2023-09-19T02:42:26;14.20;93.00
5134;DHT22;2585;48.696;10.066;2023-09-19T02:44:53;14.10;93.00
5134;DHT22;2585;48.696;10.066;2023-09-19T02:47:20;14.10;93.00
5134;DHT22;2585;48.696;10.066;2023-09-19T02:49:47;14.10;93.00
5134;DHT22;2585;48.696;10.066;2023-09-19T02:52:13;14.10;93.00
5134;DHT22;2585;48.696;10.066;2023-09-19T02:54:41;14.10;93.00
5134;DHT22;2585;48.696;10.066;2023-09-19T02:57:11;14.10;93.00
5134;DHT22;2585;48.696;10.066;2023-09-19T02:59:40;14.10;93.00
5134;DHT22;2585;48.696;10.066;2023-09-19T03:02:08;14.10;93.00
5134;DHT22;2585;48.696;10.066;2023-09-19T03:04:36;14.10;93.00
5134;DHT22;2585;48.696;10.066;2023-09-19T03:07:04;14.10;93.00
5134;DHT22;2585;48.696;10.066;2023-09-19T03:09:31;14.10;93.00
5134;DHT22;2585;48.696;10.066;2023-09-19T03:11:57;14.10;93.00
5134;DHT22;2585;48.696;10.066;2023-09-19T03:14:26;14.10;93.00
5134;DHT22;2585;48.696;10.066;2023-09-19T03:16:56;14.20;93.00
5134;DHT22;2585;48.696;10.066;2023-09-19T03:19:23;14.20;93.00
5134;DHT22;2585;48.696;10.066;2023-09-19T03:21:51;14.20;93.00
5134;DHT22;2585;48.696;10.066;2023-09-19T03:24:18;14.20;93.00
5134;DHT22;2585;48.696;10.066;2023-09-19T03:26:46;14.20;93.00
5134;DHT22;2585;48.696;10.066;2023-09-19T03:29:13;14.20;93.00
5134;DHT22;2585;48.696;10.066;2023-09-19T03:31:40;14.10;93.00
5134;DHT22;2585;48.696;10.066;2023-09-19T03:34:07;14.10;93.00
5134;DHT22;2585;48.696;10.066;2023-09-19T03:36:35;14.10;93.00
5134;DHT22;2585;48.696;10.066;2023-09-19T03:39:02;14.00;93.00
5134;DHT22;2585;48.696;10.066;2023-09-19T03:41:32;14.00;93.00
5134;DHT22;2585;48.696;10.066;2023-09-19T03:43:59;14.00;93.00
5134;DHT22;2585;48.696;10.066;2023-09-19T03:46:26;13.90;92.90
5134;DHT22;2585;48.696;10.066;2023-09-19T03:48:53;13.80;92.90
5134;DHT22;2585;48.696;10.066;2023-09-19T03:51:21;13.70;92.90
5134;DHT22;2585;48.696;10.066;2023-09-19T03:53:48;13.70;92.90
5134;DHT22;2585;48.696;10.066;2023-09-19T03:56:16;13.70;92.90
5134;DHT22;2585;48.696;10.066;2023-09-19T03:58:43;13.70;92.90
5134;DHT22;2585;48.696;10.066;2023-09-19T04:01:11;13.70;92.90
5134;DHT22;2585;48.696;10.066;2023-09-19T04:03:39;13.60;92.90
5134;DHT22;2585;48.696;10.066;2023-09-19T04:06:14;13.60;92.90
5134;DHT22;2585;48.696;10.066;2023-09-19T04:08:42;13.60;92.90
5134;DHT22;2585;48.696;10.066;2023-09-19T04:11:09;13.60;92.90
5134;DHT22;2585;48.696;10.066;2023-09-19T04:13:36;13.60;92.90
5134;DHT22;2585;48.696;10.066;2023-09-19T04:16:03;13.70;92.90
5134;DHT22;2585;48.696;10.066;2023-09-19T04:18:30;13.70;92.90
5134;DHT22;2585;48.696;10.066;2023-09-19T04:21:00;13.70;92.90
5134;DHT22;2585;48.696;10.066;2023-09-19T04:23:30;13.70;92.90
5134;DHT22;2585;48.696;10.066;2023-09-19T04:25:58;13.80;92.90
5134;DHT22;2585;48.696;10.066;2023-09-19T04:28:25;13.70;92.90
5134;DHT22;2585;48.696;10.066;2023-09-19T04:30:54;13.80;92.90
5134;DHT22;2585;48.696;10.066;2023-09-19T04:33:22;13.80;92.90
5134;DHT22;2585;48.696;10.066;2023-09-19T04:35:50;13.80;92.90
5134;DHT22;2585;48.696;10.066;2023-09-19T04:38:20;13.90;93.00
5134;DHT22;2585;48.696;10.066;2023-09-19T04:40:47;13.80;93.00
5134;DHT22;2585;48.696;10.066;2023-09-19T04:43:14;13.80;93.00
5134;DHT22;2585;48.696;10.066;2023-09-19T04:45:42;13.80;93.00
5134;DHT22;2585;48.696;10.066;2023-09-19T04:48:09;13.80;93.00
5134;DHT22;2585;48.696;10.066;2023-09-19T04:50:37;13.80;93.00
5134;DHT22;2585;48.696;10.066;2023-09-19T04:53:05;13.70;92.90
5134;DHT22;2585;48.696;10.066;2023-09-19T04:55:32;13.70;92.90
5134;DHT22;2585;48.696;10.066;2023-09-19T04:57:59;13.70;92.90
5134;DHT22;2585;48.696;10.066;2023-09-19T05:00:26;13.60;92.90
5134;DHT22;2585;48.696;10.066;2023-09-19T05:02:57;13.60;92.90
5134;DHT22;2585;48.696;10.066;2023-09-19T05:05:24;13.50;92.90
5134;DHT22;2585;48.696;10.066;2023-09-19T05:07:52;13.40;92.80
5134;DHT22;2585;48.696;10.066;2023-09-19T05:10:21;13.40;92.80
5134;DHT22;2585;48.696;10.066;2023-09-19T05:12:48;13.40;92.80
5134;DHT22;2585;48.696;10.066;2023-09-19T05:15:18;13.40;92.80
5134;DHT22;2585;48.696;10.066;2023-09-19T05:17:52;13.50;92.90
5134;DHT22;2585;48.696;10.066;2023-09-19T05:20:24;13.50;92.90
5134;DHT22;2585;48.696;10.066;2023-09-19T05:23:06;13.50;92.90
5134;DHT22;2585;48.696;10.066;2023-09-19T05:25:40;13.60;92.90
5134;DHT22;2585;48.696;10.066;2023-09-19T05:28:09;13.60;92.90
5134;DHT22;2585;48.696;10.066;2023-09-19T05:30:38;13.60;92.90
5134;DHT22;2585;48.696;10.066;2023-09-19T05:33:05;13.60;92.90
5134;DHT22;2585;48.696;10.066;2023-09-19T05:35:32;13.70;92.90
5134;DHT22;2585;48.696;10.066;2023-09-19T05:37:59;13.70;92.90
5134;DHT22;2585;48.696;10.066;2023-09-19T05:40:26;13.70;92.90
5134;DHT22;2585;48.696;10.066;2023-09-19T05:42:54;13.80;93.00
5134;DHT22;2585;48.696;10.066;2023-09-19T05:45:21;13.90;93.00
5134;DHT22;2585;48.696;10.066;2023-09-19T05:47:51;14.00;93.00
5134;DHT22;2585;48.696;10.066;2023-09-19T05:50:22;14.00;93.00
5134;DHT22;2585;48.696;10.066;2023-09-19T05:52:52;14.10;93.10
5134;DHT22;2585;48.696;10.066;2023-09-19T05:55:20;14.20;93.10
5134;DHT22;2585;48.696;10.066;2023-09-19T05:57:54;14.10;93.10
5134;DHT22;2585;48.696;10.066;2023-09-19T06:00:22;14.10;93.10
5134;DHT22;2585;48.696;10.066;2023-09-19T06:02:56;14.20;93.10
5134;DHT22;2585;48.696;10.066;2023-09-19T06:05:25;14.30;93.10
5134;DHT22;2585;48.696;10.066;2023-09-19T06:07:54;14.40;93.10
5134;DHT22;2585;48.696;10.066;2023-09-19T06:10:21;14.50;93.20
5134;DHT22;2585;48.696;10.066;2023-09-19T06:12:49;14.70;93.20
5134;DHT22;2585;48.696;10.066;2023-09-19T06:15:16;14.80;93.20
5134;DHT22;2585;48.696;10.066;2023-09-19T06:17:51;14.90;93.30
5134;DHT22;2585;48.696;10.066;2023-09-19T06:20:18;15.00;93.30
5134;DHT22;2585;48.696;10.066;2023-09-19T06:22:46;15.00;93.30
5134;DHT22;2585;48.696;10.066;2023-09-19T06:25:15;15.10;93.30
5134;DHT22;2585;48.696;10.066;2023-09-19T06:27:50;15.20;93.30
5134;DHT22;2585;48.696;10.066;2023-09-19T06:30:22;15.20;93.30
5134;DHT22;2585;48.696;10.066;2023-09-19T06:33:00;15.30;93.30
5134;DHT22;2585;48.696;10.066;2023-09-19T06:35:28;15.40;93.40
5134;DHT22;2585;48.696;10.066;2023-09-19T06:38:02;15.30;93.30
5134;DHT22;2585;48.696;10.066;2023-09-19T06:40:29;15.30;93.30
5134;DHT22;2585;48.696;10.066;2023-09-19T06:42:57;15.30;93.30
5134;DHT22;2585;48.696;10.066;2023-09-19T06:45:24;15.30;93.30
5134;DHT22;2585;48.696;10.066;2023-09-19T06:47:53;15.30;93.30
5134;DHT22;2585;48.696;10.066;2023-09-19T06:50:25;15.20;93.30
5134;DHT22;2585;48.696;10.066;2023-09-19T06:52:53;15.10;93.20
5134;DHT22;2585;48.696;10.066;2023-09-19T06:55:22;15.20;93.30
5134;DHT22;2585;48.696;10.066;2023-09-19T06:57:55;15.20;93.30
5134;DHT22;2585;48.696;10.066;2023-09-19T07:00:22;15.10;93.30
5134;DHT22;2585;48.696;10.066;2023-09-19T07:03:03;15.20;93.30
5134;DHT22;2585;48.696;10.066;2023-09-19T07:05:32;15.40;93.30
5134;DHT22;2585;48.696;10.066;2023-09-19T07:07:59;15.40;93.30
5134;DHT22;2585;48.696;10.066;2023-09-19T07:10:28;15.40;93.30
5134;DHT22;2585;48.696;10.066;2023-09-19T07:13:03;15.50;93.40
5134;DHT22;2585;48.696;10.066;2023-09-19T07:15:32;15.50;93.40
5134;DHT22;2585;48.696;10.066;2023-09-19T07:18:03;15.60;93.40
5134;DHT22;2585;48.696;10.066;2023-09-19T07:20:30;15.40;93.30
5134;DHT22;2585;48.696;10.066;2023-09-19T07:22:59;15.30;93.30
5134;DHT22;2585;48.696;10.066;2023-09-19T07:25:30;15.10;93.20
5134;DHT22;2585;48.696;10.066;2023-09-19T07:27:58;15.00;93.20
5134;DHT22;2585;48.696;10.066;2023-09-19T07:30:27;14.80;93.10
5134;DHT22;2585;48.696;10.066;2023-09-19T07:32:54;14.60;93.10
5134;DHT22;2585;48.696;10.066;2023-09-19T07:35:21;14.50;93.00
5134;DHT22;2585;48.696;10.066;2023-09-19T07:37:49;14.40;93.00
5134;DHT22;2585;48.696;10.066;2023-09-19T07:40:19;14.40;93.00
5134;DHT22;2585;48.696;10.066;2023-09-19T07:42:47;14.30;93.00
5134;DHT22;2585;48.696;10.066;2023-09-19T07:45:14;14.40;93.00
5134;DHT22;2585;48.696;10.066;2023-09-19T07:47:48;14.30;93.00
5134;DHT22;2585;48.696;10.066;2023-09-19T07:50:17;14.10;92.90
5134;DHT22;2585;48.696;10.066;2023-09-19T07:52:46;14.10;92.90
5134;DHT22;2585;48.696;10.066;2023-09-19T07:55:13;14.00;92.90
5134;DHT22;2585;48.696;10.066;2023-09-19T07:57:44;14.10;92.90
5134;DHT22;2585;48.696;10.066;2023-09-19T08:00:11;14.20;93.00
5134;DHT22;2585;48.696;10.066;2023-09-19T08:02:39;14.40;93.00
5134;DHT22;2585;48.696;10.066;2023-09-19T08:05:10;14.40;93.00
5134;DHT22;2585;48.696;10.066;2023-09-19T08:07:39;14.50;93.00
5134;DHT22;2585;48.696;10.066;2023-09-19T08:10:07;14.70;93.10
5134;DHT22;2585;48.696;10.066;2023-09-19T08:12:35;14.80;93.10
5134;DHT22;2585;48.696;10.066;2023-09-19T08:15:06;14.90;93.10
5134;DHT22;2585;48.696;10.066;2023-09-19T08:17:35;15.00;93.20
5134;DHT22;2585;48.696;10.066;2023-09-19T08:20:02;15.40;93.30
5134;DHT22;2585;48.696;10.066;2023-09-19T08:22:32;15.60;93.30
5134;DHT22;2585;48.696;10.066;2023-09-19T08:24:59;15.40;93.20
5134;DHT22;2585;48.696;10.066;2023-09-19T08:27:26;15.50;93.20
5134;DHT22;2585;48.696;10.066;2023-09-19T08:29:55;15.50;93.20
5134;DHT22;2585;48.696;10.066;2023-09-19T08:32:22;15.40;93.20
5134;DHT22;2585;48.696;10.066;2023-09-19T08:34:51;15.50;93.20
5134;DHT22;2585;48.696;10.066;2023-09-19T08:37:18;15.50;93.20
5134;DHT22;2585;48.696;10.066;2023-09-19T08:39:45;15.40;93.20
5134;DHT22;2585;48.696;10.066;2023-09-19T08:42:12;15.30;93.10
5134;DHT22;2585;48.696;10.066;2023-09-19T08:44:40;15.50;93.20
5134;DHT22;2585;48.696;10.066;2023-09-19T08:47:15;15.70;93.30
5134;DHT22;2585;48.696;10.066;2023-09-19T08:52:48;16.10;93.30
5134;DHT22;2585;48.696;10.066;2023-09-19T08:55:19;16.40;93.40
5134;DHT22;2585;48.696;10.066;2023-09-19T08:57:52;16.60;93.40
5134;DHT22;2585;48.696;10.066;2023-09-19T09:00:27;17.10;93.50
5134;DHT22;2585;48.696;10.066;2023-09-19T09:02:55;17.10;93.40
5134;DHT22;2585;48.696;10.066;2023-09-19T09:05:23;17.70;93.60
5134;DHT22;2585;48.696;10.066;2023-09-19T09:07:51;17.80;93.50
5134;DHT22;2585;48.696;10.066;2023-09-19T09:10:18;17.80;93.40
5134;DHT22;2585;48.696;10.066;2023-09-19T09:12:51;18.10;93.40
5134;DHT22;2585;48.696;10.066;2023-09-19T09:15:22;18.30;93.50
5134;DHT22;2585;48.696;10.066;2023-09-19T09:17:51;18.00;93.20
5134;DHT22;2585;48.696;10.066;2023-09-19T09:20:21;17.80;93.10
5134;DHT22;2585;48.696;10.066;2023-09-19T09:22:55;17.60;92.70
5134;DHT22;2585;48.696;10.066;2023-09-19T09:25:51;17.90;92.50
5134;DHT22;2585;48.696;10.066;2023-09-19T09:28:27;17.90;92.10
5134;DHT22;2585;48.696;10.066;2023-09-19T09:30:55;17.40;92.00
5134;DHT22;2585;48.696;10.066;2023-09-19T09:33:23;17.20;91.40
5134;DHT22;2585;48.696;10.066;2023-09-19T09:35:54;17.00;91.90
5134;DHT22;2585;48.696;10.066;2023-09-19T09:38:27;16.90;91.50
5134;DHT22;2585;48.696;10.066;2023-09-19T09:40:56;16.70;91.20
5134;DHT22;2585;48.696;10.066;2023-09-19T09:43:35;17.00;91.30
5134;DHT22;2585;48.696;10.066;2023-09-19T09:46:21;17.50;91.40
5134;DHT22;2585;48.696;10.066;2023-09-19T09:49:05;18.30;91.30
5134;DHT22;2585;48.696;10.066;2023-09-19T09:54:17;18.60;85.40
5134;DHT22;2585;48.696;10.066;2023-09-19T09:57:12;18.90;84.70
5134;DHT22;2585;48.696;10.066;2023-09-19T09:59:57;18.50;68.50
5134;DHT22;2585;48.696;10.066;2023-09-19T10:02:45;18.90;75.30
5134;DHT22;2585;48.696;10.066;2023-09-19T10:05:15;19.30;65.50
5134;DHT22;2585;48.696;10.066;2023-09-19T10:07:42;19.40;56.30
5134;DHT22;2585;48.696;10.066;2023-09-19T10:10:33;19.70;3.60
5134;DHT22;2585;48.696;10.066;2023-09-19T10:13:14;19.60;13.70
5134;DHT22;2585;48.696;10.066;2023-09-19T10:15:49;19.00;1.00
5134;DHT22;2585;48.696;10.066;2023-09-19T10:18:25;18.70;1.00
5134;DHT22;2585;48.696;10.066;2023-09-19T10:20:53;18.10;9.50
5134;DHT22;2585;48.696;10.066;2023-09-19T10:23:22;17.90;59.80
5134;DHT22;2585;48.696;10.066;2023-09-19T10:25:50;18.20;32.30
5134;DHT22;2585;48.696;10.066;2023-09-19T10:28:20;18.20;1.00
5134;DHT22;2585;48.696;10.066;2023-09-19T10:30:53;18.70;1.00
5134;DHT22;2585;48.696;10.066;2023-09-19T10:33:22;19.60;1.00
5134;DHT22;2585;48.696;10.066;2023-09-19T10:35:53;19.90;66.00
5134;DHT22;2585;48.696;10.066;2023-09-19T10:38:26;20.50;1.00
5134;DHT22;2585;48.696;10.066;2023-09-19T10:40:55;20.50;51.70
5134;DHT22;2585;48.696;10.066;2023-09-19T10:46:29;21.40;76.40
5134;DHT22;2585;48.696;10.066;2023-09-19T10:49:01;21.30;19.90
5134;DHT22;2585;48.696;10.066;2023-09-19T10:51:31;20.60;2.20
5134;DHT22;2585;48.696;10.066;2023-09-19T10:54:12;20.40;1.00
5134;DHT22;2585;48.696;10.066;2023-09-19T10:56:46;20.80;1.00
5134;DHT22;2585;48.696;10.066;2023-09-19T10:59:17;20.60;63.30
5134;DHT22;2585;48.696;10.066;2023-09-19T11:01:51;20.40;34.10
5134;DHT22;2585;48.696;10.066;2023-09-19T11:04:32;20.50;34.80
5134;DHT22;2585;48.696;10.066;2023-09-19T11:09:55;21.00;1.00
5134;DHT22;2585;48.696;10.066;2023-09-19T11:16:17;21.30;1.00
5134;DHT22;2585;48.696;10.066;2023-09-19T11:26:56;19.60;1.00
5134;DHT22;2585;48.696;10.066;2023-09-19T11:29:35;19.20;1.00
5134;DHT22;2585;48.696;10.066;2023-09-19T11:32:02;19.00;20.80
5134;DHT22;2585;48.696;10.066;2023-09-19T11:34:42;18.90;82.70
5134;DHT22;2585;48.696;10.066;2023-09-19T11:40:10;19.90;92.30
5134;DHT22;2585;48.696;10.066;2023-09-19T11:42:45;20.60;1.00
5134;DHT22;2585;48.696;10.066;2023-09-19T11:48:18;21.70;92.40
5134;DHT22;2585;48.696;10.066;2023-09-19T11:50:45;22.00;75.60
5134;DHT22;2585;48.696;10.066;2023-09-19T11:53:14;22.50;68.70
5134;DHT22;2585;48.696;10.066;2023-09-19T11:55:43;22.30;13.60
5134;DHT22;2585;48.696;10.066;2023-09-19T11:58:10;21.90;1.00
5134;DHT22;2585;48.696;10.066;2023-09-19T12:00:42;22.50;1.00
5134;DHT22;2585;48.696;10.066;2023-09-19T12:03:12;22.80;1.00
5134;DHT22;2585;48.696;10.066;2023-09-19T12:05:41;23.30;1.00
5134;DHT22;2585;48.696;10.066;2023-09-19T12:08:08;23.70;1.00
5134;DHT22;2585;48.696;10.066;2023-09-19T12:10:48;23.30;84.30
5134;DHT22;2585;48.696;10.066;2023-09-19T12:13:17;23.90;81.90
5134;DHT22;2585;48.696;10.066;2023-09-19T12:15:45;24.10;68.90
5134;DHT22;2585;48.696;10.066;2023-09-19T12:18:29;24.50;73.80
5134;DHT22;2585;48.696;10.066;2023-09-19T12:20:57;24.70;61.70
5134;DHT22;2585;48.696;10.066;2023-09-19T12:23:25;24.30;13.60
5134;DHT22;2585;48.696;10.066;2023-09-19T12:25:55;24.30;1.00
5134;DHT22;2585;48.696;10.066;2023-09-19T12:28:26;24.50;4.70
5134;DHT22;2585;48.696;10.066;2023-09-19T12:30:55;24.20;1.00
5134;DHT22;2585;48.696;10.066;2023-09-19T12:33:23;24.10;1.00
5134;DHT22;2585;48.696;10.066;2023-09-19T12:35:53;24.20;1.00
5134;DHT22;2585;48.696;10.066;2023-09-19T12:38:27;23.70;1.00
5134;DHT22;2585;48.696;10.066;2023-09-19T12:40:59;23.10;1.00
5134;DHT22;2585;48.696;10.066;2023-09-19T12:43:29;23.00;1.00
5134;DHT22;2585;48.696;10.066;2023-09-19T12:46:03;23.30;1.00
5134;DHT22;2585;48.696;10.066;2023-09-19T12:48:31;23.40;93.70
5134;DHT22;2585;48.696;10.066;2023-09-19T12:51:04;23.50;93.70
5134;DHT22;2585;48.696;10.066;2023-09-19T12:53:40;23.90;92.90
5134;DHT22;2585;48.696;10.066;2023-09-19T12:56:11;24.30;92.90
5134;DHT22;2585;48.696;10.066;2023-09-19T12:58:52;24.30;90.50
5134;DHT22;2585;48.696;10.066;2023-09-19T13:01:23;24.20;87.50
5134;DHT22;2585;48.696;10.066;2023-09-19T13:04:17;24.30;86.90
5134;DHT22;2585;48.696;10.066;2023-09-19T13:06:51;24.40;86.20
5134;DHT22;2585;48.696;10.066;2023-09-19T13:09:20;24.70;84.70
5134;DHT22;2585;48.696;10.066;2023-09-19T13:11:48;24.80;84.00
5134;DHT22;2585;48.696;10.066;2023-09-19T13:14:21;24.30;77.60
5134;DHT22;2585;48.696;10.066;2023-09-19T13:17:03;24.10;76.40
5134;DHT22;2585;48.696;10.066;2023-09-19T13:19:48;24.10;73.80
5134;DHT22;2585;48.696;10.066;2023-09-19T13:25:17;24.10;64.20
5134;DHT22;2585;48.696;10.066;2023-09-19T13:27:53;24.00;63.90
5134;DHT22;2585;48.696;10.066;2023-09-19T13:30:25;24.10;63.60
5134;DHT22;2585;48.696;10.066;2023-09-19T13:33:03;24.20;60.00
5134;DHT22;2585;48.696;10.066;2023-09-19T13:35:31;24.20;59.90
5134;DHT22;2585;48.696;10.066;2023-09-19T13:37:59;24.00;52.10
5134;DHT22;2585;48.696;10.066;2023-09-19T13:40:27;23.70;34.80
5134;DHT22;2585;48.696;10.066;2023-09-19T13:42:57;23.70;33.00
5134;DHT22;2585;48.696;10.066;2023-09-19T13:45:24;23.60;30.00
5134;DHT22;2585;48.696;10.066;2023-09-19T13:47:53;23.80;28.40
5134;DHT22;2585;48.696;10.066;2023-09-19T13:50:20;23.40;21.00
5134;DHT22;2585;48.696;10.066;2023-09-19T13:52:51;22.90;16.10
5134;DHT22;2585;48.696;10.066;2023-09-19T13:55:18;23.40;26.60
5134;DHT22;2585;48.696;10.066;2023-09-19T13:57:48;23.90;26.40
5134;DHT22;2585;48.696;10.066;2023-09-19T14:00:16;23.60;12.70
5134;DHT22;2585;48.696;10.066;2023-09-19T14:02:44;23.80;16.50
5134;DHT22;2585;48.696;10.066;2023-09-19T14:05:13;24.30;16.90
5134;DHT22;2585;48.696;10.066;2023-09-19T14:07:42;24.10;12.60
5134;DHT22;2585;48.696;10.066;2023-09-19T14:10:10;24.00;6.10
5134;DHT22;2585;48.696;10.066;2023-09-19T14:12:37;24.00;8.60
5134;DHT22;2585;48.696;10.066;2023-09-19T14:15:05;24.10;5.40
5134;DHT22;2585;48.696;10.066;2023-09-19T14:17:32;23.50;1.00
5134;DHT22;2585;48.696;10.066;2023-09-19T14:20:00;22.90;1.00
5134;DHT22;2585;48.696;10.066;2023-09-19T14:22:26;22.50;1.00
5134;DHT22;2585;48.696;10.066;2023-09-19T14:24:53;22.80;2.80
5134;DHT22;2585;48.696;10.066;2023-09-19T14:27:20;22.70;1.00
5134;DHT22;2585;48.696;10.066;2023-09-19T14:29:47;22.60;1.00
5134;DHT22;2585;48.696;10.066;2023-09-19T14:32:14;22.40;1.00
5134;DHT22;2585;48.696;10.066;2023-09-19T14:34:41;22.30;1.00
5134;DHT22;2585;48.696;10.066;2023-09-19T14:37:09;21.90;1.00
5134;DHT22;2585;48.696;10.066;2023-09-19T14:39:37;21.70;1.00
5134;DHT22;2585;48.696;10.066;2023-09-19T14:42:07;21.70;1.00
5134;DHT22;2585;48.696;10.066;2023-09-19T14:44:35;21.70;1.00
5134;DHT22;2585;48.696;10.066;2023-09-19T14:47:04;21.70;1.00
5134;DHT22;2585;48.696;10.066;2023-09-19T14:49:34;21.80;1.00
5134;DHT22;2585;48.696;10.066;2023-09-19T14:52:01;22.00;1.30
5134;DHT22;2585;48.696;10.066;2023-09-19T14:54:31;21.90;5.20
5134;DHT22;2585;48.696;10.066;2023-09-19T14:56:57;21.80;6.20
5134;DHT22;2585;48.696;10.066;2023-09-19T14:59:31;21.40;3.50
5134;DHT22;2585;48.696;10.066;2023-09-19T15:01:58;21.40;7.20
5134;DHT22;2585;48.696;10.066;2023-09-19T15:04:27;21.30;9.00
5134;DHT22;2585;48.696;10.066;2023-09-19T15:06:54;21.20;8.10
5134;DHT22;2585;48.696;10.066;2023-09-19T15:09:23;21.30;3.10
5134;DHT22;2585;48.696;10.066;2023-09-19T15:11:53;21.00;8.20
5134;DHT22;2585;48.696;10.066;2023-09-19T15:14:20;20.90;7.10
5134;DHT22;2585;48.696;10.066;2023-09-19T15:16:48;20.70;5.70
5134;DHT22;2585;48.696;10.066;2023-09-19T15:19:15;20.70;17.60
5134;DHT22;2585;48.696;10.066;2023-09-19T15:21:43;20.70;23.40
5134;DHT22;2585;48.696;10.066;2023-09-19T15:24:10;20.60;19.00
5134;DHT22;2585;48.696;10.066;2023-09-19T15:26:37;20.50;8.90
5134;DHT22;2585;48.696;10.066;2023-09-19T15:29:11;20.50;23.70
5134;DHT22;2585;48.696;10.066;2023-09-19T15:31:39;20.50;16.10
5134;DHT22;2585;48.696;10.066;2023-09-19T15:34:06;20.50;18.20
5134;DHT22;2585;48.696;10.066;2023-09-19T15:36:34;20.40;20.30
5134;DHT22;2585;48.696;10.066;2023-09-19T15:43:59;20.10;40.60
5134;DHT22;2585;48.696;10.066;2023-09-19T15:46:28;20.10;44.50
5134;DHT22;2585;48.696;10.066;2023-09-19T15:49:00;20.20;44.30
5134;DHT22;2585;48.696;10.066;2023-09-19T15:51:27;20.30;48.60
5134;DHT22;2585;48.696;10.066;2023-09-19T15:53:55;20.20;49.30
5134;DHT22;2585;48.696;10.066;2023-09-19T15:56:23;20.20;58.00
5134;DHT22;2585;48.696;10.066;2023-09-19T15:58:52;20.00;62.20
5134;DHT22;2585;48.696;10.066;2023-09-19T16:01:22;19.90;61.10
5134;DHT22;2585;48.696;10.066;2023-09-19T16:03:52;19.90;61.20
5134;DHT22;2585;48.696;10.066;2023-09-19T16:06:28;19.80;59.60
5134;DHT22;2585;48.696;10.066;2023-09-19T16:08:57;19.80;59.80
5134;DHT22;2585;48.696;10.066;2023-09-19T16:11:27;19.60;60.20
5134;DHT22;2585;48.696;10.066;2023-09-19T16:13:55;19.50;60.20
5134;DHT22;2585;48.696;10.066;2023-09-19T16:16:23;19.50;61.90
5134;DHT22;2585;48.696;10.066;2023-09-19T16:18:52;19.40;64.30
5134;DHT22;2585;48.696;10.066;2023-09-19T16:21:19;19.30;69.00
5134;DHT22;2585;48.696;10.066;2023-09-19T16:23:47;19.30;69.50
5134;DHT22;2585;48.696;10.066;2023-09-19T16:26:17;19.20;71.40
5134;DHT22;2585;48.696;10.066;2023-09-19T16:28:45;19.20;77.20
5134;DHT22;2585;48.696;10.066;2023-09-19T16:31:12;19.10;80.20
5134;DHT22;2585;48.696;10.066;2023-09-19T16:33:41;18.90;87.20
5134;DHT22;2585;48.696;10.066;2023-09-19T16:36:09;18.90;91.10
5134;DHT22;2585;48.696;10.066;2023-09-19T16:38:37;18.80;1.00
5134;DHT22;2585;48.696;10.066;2023-09-19T16:41:06;18.70;1.00
5134;DHT22;2585;48.696;10.066;2023-09-19T16:43:33;18.70;1.00
5134;DHT22;2585;48.696;10.066;2023-09-19T16:46:05;18.60;1.00
5134;DHT22;2585;48.696;10.066;2023-09-19T16:48:39;18.40;66.30
5134;DHT22;2585;48.696;10.066;2023-09-19T16:51:21;18.10;1.00
5134;DHT22;2585;48.696;10.066;2023-09-19T16:53:48;18.00;1.00
5134;DHT22;2585;48.696;10.066;2023-09-19T16:56:20;18.10;17.40
5134;DHT22;2585;48.696;10.066;2023-09-19T16:58:48;18.00;62.80